sensor_id;sensor_type;location;lat;lon;timestamp;P1;durP1;ratioP1;P2;durP2;ratioP2
72235;SDS011;60146;52.498;13.462;2023-06-22T00:00:57;12.23;;;7.05;;
72235;SDS011;60146;52.498;13.462;2023-06-22T00:03:25;11.02;;;7.18;;
72235;SDS011;60146;52.498;13.462;2023-06-22T00:05:51;10.23;;;7.07;;
72235;SDS011;60146;52.498;13.462;2023-06-22T00:08:17;12.13;;;7.25;;
72235;SDS011;60146;52.498;13.462;2023-06-22T00:10:44;11.48;;;7.03;;
72235;SDS011;60146;52.498;13.462;2023-06-22T00:13:09;10.70;;;7.18;;
72235;SDS011;60146;52.498;13.462;2023-06-22T00:15:35;11.32;;;6.82;;
72235;SDS011;60146;52.498;13.462;2023-06-22T00:18:02;10.10;;;6.50;;
72235;SDS011;60146;52.498;13.462;2023-06-22T00:20:28;10.13;;;6.75;;
72235;SDS011;60146;52.498;13.462;2023-06-22T00:22:55;12.52;;;7.32;;
72235;SDS011;60146;52.498;13.462;2023-06-22T00:25:20;12.77;;;7.43;;
72235;SDS011;60146;52.498;13.462;2023-06-22T00:27:46;15.75;;;7.57;;
72235;SDS011;60146;52.498;13.462;2023-06-22T00:30:12;12.57;;;7.47;;
72235;SDS011;60146;52.498;13.462;2023-06-22T00:32:37;11.25;;;7.00;;
72235;SDS011;60146;52.498;13.462;2023-06-22T00:35:03;12.40;;;7.70;;
72235;SDS011;60146;52.498;13.462;2023-06-22T00:37:28;12.77;;;7.40;;
72235;SDS011;60146;52.498;13.462;2023-06-22T00:39:54;12.73;;;7.65;;
72235;SDS011;60146;52.498;13.462;2023-06-22T00:42:20;12.02;;;6.90;;
72235;SDS011;60146;52.498;13.462;2023-06-22T00:44:46;11.38;;;7.40;;
72235;SDS011;60146;52.498;13.462;2023-06-22T00:47:12;10.32;;;6.93;;
72235;SDS011;60146;52.498;13.462;2023-06-22T00:49:39;10.18;;;6.72;;
72235;SDS011;60146;52.498;13.462;2023-06-22T00:52:05;11.52;;;7.22;;
72235;SDS011;60146;52.498;13.462;2023-06-22T00:54:34;10.55;;;7.15;;
72235;SDS011;60146;52.498;13.462;2023-06-22T00:57:01;10.20;;;7.13;;
72235;SDS011;60146;52.498;13.462;2023-06-22T00:59:27;9.60;;;6.95;;
72235;SDS011;60146;52.498;13.462;2023-06-22T01:01:55;9.65;;;6.57;;
72235;SDS011;60146;52.498;13.462;2023-06-22T01:04:34;12.88;;;7.70;;
72235;SDS011;60146;52.498;13.462;2023-06-22T01:09:58;9.77;;;7.05;;
72235;SDS011;60146;52.498;13.462;2023-06-22T01:12:32;12.15;;;7.70;;
72235;SDS011;60146;52.498;13.462;2023-06-22T01:15:23;11.45;;;7.85;;
72235;SDS011;60146;52.498;13.462;2023-06-22T01:17:53;12.85;;;8.23;;
72235;SDS011;60146;52.498;13.462;2023-06-22T01:20:20;12.75;;;8.18;;
72235;SDS011;60146;52.498;13.462;2023-06-22T01:25:33;13.13;;;7.93;;
72235;SDS011;60146;52.498;13.462;2023-06-22T01:28:17;11.13;;;7.22;;
72235;SDS011;60146;52.498;13.462;2023-06-22T01:30:49;12.70;;;7.55;;
72235;SDS011;60146;52.498;13.462;2023-06-22T01:33:28;11.88;;;8.50;;
72235;SDS011;60146;52.498;13.462;2023-06-22T01:35:54;11.48;;;8.23;;
72235;SDS011;60146;52.498;13.462;2023-06-22T01:38:19;14.30;;;9.10;;
72235;SDS011;60146;52.498;13.462;2023-06-22T01:40:45;13.15;;;8.45;;
72235;SDS011;60146;52.498;13.462;2023-06-22T01:43:11;13.77;;;8.07;;
72235;SDS011;60146;52.498;13.462;2023-06-22T01:45:36;15.65;;;8.90;;
72235;SDS011;60146;52.498;13.462;2023-06-22T01:48:02;13.35;;;9.23;;
72235;SDS011;60146;52.498;13.462;2023-06-22T01:50:27;13.63;;;8.48;;
72235;SDS011;60146;52.498;13.462;2023-06-22T01:52:53;12.48;;;8.02;;
72235;SDS011;60146;52.498;13.462;2023-06-22T01:55:18;14.38;;;9.82;;
72235;SDS011;60146;52.498;13.462;2023-06-22T01:57:44;16.90;;;9.18;;
72235;SDS011;60146;52.498;13.462;2023-06-22T02:00:11;14.35;;;9.20;;
72235;SDS011;60146;52.498;13.462;2023-06-22T02:02:43;15.18;;;9.63;;
72235;SDS011;60146;52.498;13.462;2023-06-22T02:05:17;14.50;;;9.13;;
72235;SDS011;60146;52.498;13.462;2023-06-22T02:07:46;13.95;;;9.02;;
72235;SDS011;60146;52.498;13.462;2023-06-22T02:10:17;15.20;;;9.02;;
72235;SDS011;60146;52.498;13.462;2023-06-22T02:12:46;14.63;;;8.93;;
72235;SDS011;60146;52.498;13.462;2023-06-22T02:15:12;15.02;;;9.00;;
72235;SDS011;60146;52.498;13.462;2023-06-22T02:17:39;18.05;;;10.48;;
72235;SDS011;60146;52.498;13.462;2023-06-22T02:20:13;15.77;;;9.50;;
72235;SDS011;60146;52.498;13.462;2023-06-22T02:22:39;14.27;;;9.80;;
72235;SDS011;60146;52.498;13.462;2023-06-22T02:25:04;14.88;;;9.10;;
72235;SDS011;60146;52.498;13.462;2023-06-22T02:27:30;15.48;;;9.95;;
72235;SDS011;60146;52.498;13.462;2023-06-22T02:29:56;15.63;;;9.25;;
72235;SDS011;60146;52.498;13.462;2023-06-22T02:32:22;15.32;;;8.88;;
72235;SDS011;60146;52.498;13.462;2023-06-22T02:34:47;17.55;;;9.35;;
72235;SDS011;60146;52.498;13.462;2023-06-22T02:37:13;15.10;;;9.77;;
72235;SDS011;60146;52.498;13.462;2023-06-22T02:39:39;14.70;;;9.55;;
72235;SDS011;60146;52.498;13.462;2023-06-22T02:42:05;16.17;;;9.65;;
72235;SDS011;60146;52.498;13.462;2023-06-22T02:44:31;17.83;;;10.20;;
72235;SDS011;60146;52.498;13.462;2023-06-22T02:46:56;15.40;;;10.20;;
72235;SDS011;60146;52.498;13.462;2023-06-22T02:49:22;17.75;;;10.05;;
72235;SDS011;60146;52.498;13.462;2023-06-22T02:51:47;15.57;;;9.55;;
72235;SDS011;60146;52.498;13.462;2023-06-22T02:54:13;19.50;;;10.38;;
72235;SDS011;60146;52.498;13.462;2023-06-22T02:56:39;18.13;;;9.90;;
72235;SDS011;60146;52.498;13.462;2023-06-22T02:59:06;18.45;;;10.00;;
72235;SDS011;60146;52.498;13.462;2023-06-22T03:01:31;14.95;;;9.55;;
72235;SDS011;60146;52.498;13.462;2023-06-22T03:04:03;15.93;;;10.18;;
72235;SDS011;60146;52.498;13.462;2023-06-22T03:06:29;23.80;;;10.38;;
72235;SDS011;60146;52.498;13.462;2023-06-22T03:08:58;15.18;;;9.73;;
72235;SDS011;60146;52.498;13.462;2023-06-22T03:11:24;14.70;;;9.55;;
72235;SDS011;60146;52.498;13.462;2023-06-22T03:13:50;14.45;;;9.88;;
72235;SDS011;60146;52.498;13.462;2023-06-22T03:16:17;15.00;;;10.05;;
72235;SDS011;60146;52.498;13.462;2023-06-22T03:18:43;14.05;;;9.00;;
72235;SDS011;60146;52.498;13.462;2023-06-22T03:21:08;15.50;;;9.13;;
72235;SDS011;60146;52.498;13.462;2023-06-22T03:23:34;13.13;;;8.88;;
72235;SDS011;60146;52.498;13.462;2023-06-22T03:25:59;15.50;;;9.23;;
72235;SDS011;60146;52.498;13.462;2023-06-22T03:28:24;13.38;;;8.43;;
72235;SDS011;60146;52.498;13.462;2023-06-22T03:30:50;15.05;;;8.80;;
72235;SDS011;60146;52.498;13.462;2023-06-22T03:33:15;14.05;;;8.02;;
72235;SDS011;60146;52.498;13.462;2023-06-22T03:35:40;17.88;;;8.27;;
72235;SDS011;60146;52.498;13.462;2023-06-22T03:38:05;10.30;;;7.10;;
72235;SDS011;60146;52.498;13.462;2023-06-22T03:40:31;12.50;;;7.50;;
72235;SDS011;60146;52.498;13.462;2023-06-22T03:42:56;11.63;;;7.32;;
72235;SDS011;60146;52.498;13.462;2023-06-22T03:45:21;13.02;;;6.53;;
72235;SDS011;60146;52.498;13.462;2023-06-22T03:47:47;14.32;;;6.85;;
72235;SDS011;60146;52.498;13.462;2023-06-22T03:50:12;12.35;;;6.25;;
72235;SDS011;60146;52.498;13.462;2023-06-22T03:52:38;10.40;;;6.35;;
72235;SDS011;60146;52.498;13.462;2023-06-22T03:55:05;7.75;;;5.13;;
72235;SDS011;60146;52.498;13.462;2023-06-22T03:57:31;11.00;;;5.90;;
72235;SDS011;60146;52.498;13.462;2023-06-22T03:59:56;8.25;;;5.68;;
72235;SDS011;60146;52.498;13.462;2023-06-22T04:02:23;11.35;;;5.35;;
72235;SDS011;60146;52.498;13.462;2023-06-22T04:04:48;12.30;;;5.28;;
72235;SDS011;60146;52.498;13.462;2023-06-22T04:07:14;9.50;;;5.50;;
72235;SDS011;60146;52.498;13.462;2023-06-22T04:09:39;9.10;;;5.75;;
72235;SDS011;60146;52.498;13.462;2023-06-22T04:12:04;10.80;;;5.57;;
72235;SDS011;60146;52.498;13.462;2023-06-22T04:14:30;10.32;;;5.88;;
72235;SDS011;60146;52.498;13.462;2023-06-22T04:16:55;10.85;;;4.97;;
72235;SDS011;60146;52.498;13.462;2023-06-22T04:19:21;10.63;;;5.72;;
72235;SDS011;60146;52.498;13.462;2023-06-22T04:21:46;11.38;;;5.78;;
72235;SDS011;60146;52.498;13.462;2023-06-22T04:24:13;14.68;;;6.20;;
72235;SDS011;60146;52.498;13.462;2023-06-22T04:26:39;10.65;;;5.60;;
72235;SDS011;60146;52.498;13.462;2023-06-22T04:29:06;9.40;;;5.90;;
72235;SDS011;60146;52.498;13.462;2023-06-22T04:31:33;10.07;;;6.00;;
72235;SDS011;60146;52.498;13.462;2023-06-22T04:34:01;10.57;;;5.80;;
72235;SDS011;60146;52.498;13.462;2023-06-22T04:36:32;10.27;;;5.85;;
72235;SDS011;60146;52.498;13.462;2023-06-22T04:39:07;11.60;;;6.40;;
72235;SDS011;60146;52.498;13.462;2023-06-22T04:41:34;8.13;;;5.75;;
72235;SDS011;60146;52.498;13.462;2023-06-22T04:46:39;9.20;;;5.57;;
72235;SDS011;60146;52.498;13.462;2023-06-22T04:49:06;12.18;;;5.30;;
72235;SDS011;60146;52.498;13.462;2023-06-22T04:51:34;9.63;;;4.88;;
72235;SDS011;60146;52.498;13.462;2023-06-22T04:54:03;9.88;;;4.90;;
72235;SDS011;60146;52.498;13.462;2023-06-22T04:56:30;13.52;;;5.72;;
72235;SDS011;60146;52.498;13.462;2023-06-22T04:58:56;11.77;;;5.70;;
72235;SDS011;60146;52.498;13.462;2023-06-22T05:01:22;8.85;;;5.30;;
72235;SDS011;60146;52.498;13.462;2023-06-22T05:03:48;9.25;;;5.15;;
72235;SDS011;60146;52.498;13.462;2023-06-22T05:06:14;8.57;;;5.15;;
72235;SDS011;60146;52.498;13.462;2023-06-22T05:08:39;9.05;;;5.45;;
72235;SDS011;60146;52.498;13.462;2023-06-22T05:11:05;8.55;;;5.18;;
72235;SDS011;60146;52.498;13.462;2023-06-22T05:13:31;12.90;;;5.57;;
72235;SDS011;60146;52.498;13.462;2023-06-22T05:15:56;11.20;;;5.40;;
72235;SDS011;60146;52.498;13.462;2023-06-22T05:18:26;11.88;;;5.60;;
72235;SDS011;60146;52.498;13.462;2023-06-22T05:20:55;8.32;;;5.18;;
72235;SDS011;60146;52.498;13.462;2023-06-22T05:23:20;11.13;;;5.28;;
72235;SDS011;60146;52.498;13.462;2023-06-22T05:25:45;13.95;;;5.32;;
72235;SDS011;60146;52.498;13.462;2023-06-22T05:28:11;11.13;;;5.38;;
72235;SDS011;60146;52.498;13.462;2023-06-22T05:30:37;10.90;;;5.07;;
72235;SDS011;60146;52.498;13.462;2023-06-22T05:33:03;6.78;;;5.03;;
72235;SDS011;60146;52.498;13.462;2023-06-22T05:35:28;8.98;;;5.45;;
72235;SDS011;60146;52.498;13.462;2023-06-22T05:37:54;7.72;;;4.82;;
72235;SDS011;60146;52.498;13.462;2023-06-22T05:40:20;9.55;;;5.28;;
72235;SDS011;60146;52.498;13.462;2023-06-22T05:42:45;11.75;;;4.80;;
72235;SDS011;60146;52.498;13.462;2023-06-22T05:45:11;9.43;;;4.63;;
72235;SDS011;60146;52.498;13.462;2023-06-22T05:47:36;8.00;;;4.40;;
72235;SDS011;60146;52.498;13.462;2023-06-22T05:50:01;8.88;;;4.10;;
72235;SDS011;60146;52.498;13.462;2023-06-22T05:54:56;6.63;;;3.90;;
72235;SDS011;60146;52.498;13.462;2023-06-22T05:57:22;7.30;;;4.05;;
72235;SDS011;60146;52.498;13.462;2023-06-22T05:59:47;9.85;;;4.05;;
72235;SDS011;60146;52.498;13.462;2023-06-22T06:02:12;7.90;;;4.45;;
72235;SDS011;60146;52.498;13.462;2023-06-22T06:04:38;7.93;;;4.60;;
72235;SDS011;60146;52.498;13.462;2023-06-22T06:07:03;9.70;;;4.20;;
72235;SDS011;60146;52.498;13.462;2023-06-22T06:09:28;9.45;;;5.43;;
72235;SDS011;60146;52.498;13.462;2023-06-22T06:11:54;7.53;;;4.60;;
72235;SDS011;60146;52.498;13.462;2023-06-22T06:14:19;10.70;;;4.10;;
72235;SDS011;60146;52.498;13.462;2023-06-22T06:16:45;8.35;;;4.15;;
72235;SDS011;60146;52.498;13.462;2023-06-22T06:19:10;7.07;;;4.10;;
72235;SDS011;60146;52.498;13.462;2023-06-22T06:21:36;7.00;;;3.75;;
72235;SDS011;60146;52.498;13.462;2023-06-22T06:24:01;4.55;;;3.53;;
72235;SDS011;60146;52.498;13.462;2023-06-22T06:26:26;5.53;;;3.70;;
72235;SDS011;60146;52.498;13.462;2023-06-22T06:28:58;6.03;;;3.30;;
72235;SDS011;60146;52.498;13.462;2023-06-22T06:31:25;7.78;;;3.70;;
72235;SDS011;60146;52.498;13.462;2023-06-22T06:33:56;6.22;;;3.97;;
72235;SDS011;60146;52.498;13.462;2023-06-22T06:36:21;5.30;;;3.80;;
72235;SDS011;60146;52.498;13.462;2023-06-22T06:38:47;8.35;;;3.75;;
72235;SDS011;60146;52.498;13.462;2023-06-22T06:41:15;8.38;;;3.70;;
72235;SDS011;60146;52.498;13.462;2023-06-22T06:43:41;7.40;;;3.67;;
72235;SDS011;60146;52.498;13.462;2023-06-22T06:46:09;8.65;;;3.85;;
72235;SDS011;60146;52.498;13.462;2023-06-22T06:48:35;5.38;;;2.97;;
72235;SDS011;60146;52.498;13.462;2023-06-22T06:51:00;7.00;;;3.30;;
72235;SDS011;60146;52.498;13.462;2023-06-22T06:53:29;7.05;;;2.97;;
72235;SDS011;60146;52.498;13.462;2023-06-22T06:55:54;5.78;;;3.13;;
72235;SDS011;60146;52.498;13.462;2023-06-22T06:58:19;7.13;;;3.35;;
72235;SDS011;60146;52.498;13.462;2023-06-22T07:00:45;5.40;;;2.63;;
72235;SDS011;60146;52.498;13.462;2023-06-22T07:03:10;23.20;;;4.10;;
72235;SDS011;60146;52.498;13.462;2023-06-22T07:05:36;12.27;;;3.30;;
72235;SDS011;60146;52.498;13.462;2023-06-22T07:08:01;14.85;;;3.88;;
72235;SDS011;60146;52.498;13.462;2023-06-22T07:10:26;5.75;;;2.50;;
72235;SDS011;60146;52.498;13.462;2023-06-22T07:12:53;10.88;;;3.50;;
72235;SDS011;60146;52.498;13.462;2023-06-22T07:15:18;5.45;;;3.25;;
72235;SDS011;60146;52.498;13.462;2023-06-22T07:17:43;7.32;;;2.78;;
72235;SDS011;60146;52.498;13.462;2023-06-22T07:20:09;5.88;;;3.00;;
72235;SDS011;60146;52.498;13.462;2023-06-22T07:22:40;9.80;;;3.75;;
72235;SDS011;60146;52.498;13.462;2023-06-22T07:25:07;7.03;;;2.65;;
72235;SDS011;60146;52.498;13.462;2023-06-22T07:27:40;4.45;;;2.70;;
72235;SDS011;60146;52.498;13.462;2023-06-22T07:30:10;5.57;;;2.80;;
72235;SDS011;60146;52.498;13.462;2023-06-22T07:32:36;5.10;;;2.63;;
72235;SDS011;60146;52.498;13.462;2023-06-22T07:35:02;6.70;;;2.80;;
72235;SDS011;60146;52.498;13.462;2023-06-22T07:37:28;19.80;;;3.00;;
72235;SDS011;60146;52.498;13.462;2023-06-22T07:39:54;8.75;;;3.75;;
72235;SDS011;60146;52.498;13.462;2023-06-22T07:42:25;5.65;;;2.30;;
72235;SDS011;60146;52.498;13.462;2023-06-22T07:44:51;10.20;;;2.53;;
72235;SDS011;60146;52.498;13.462;2023-06-22T07:47:17;5.28;;;2.28;;
72235;SDS011;60146;52.498;13.462;2023-06-22T07:49:50;3.80;;;2.20;;
72235;SDS011;60146;52.498;13.462;2023-06-22T07:52:15;4.20;;;2.20;;
72235;SDS011;60146;52.498;13.462;2023-06-22T07:54:40;4.50;;;2.25;;
72235;SDS011;60146;52.498;13.462;2023-06-22T07:57:06;2.67;;;2.10;;
72235;SDS011;60146;52.498;13.462;2023-06-22T07:59:31;3.50;;;2.10;;
72235;SDS011;60146;52.498;13.462;2023-06-22T08:01:56;5.15;;;2.40;;
72235;SDS011;60146;52.498;13.462;2023-06-22T08:04:22;8.48;;;2.35;;
72235;SDS011;60146;52.498;13.462;2023-06-22T08:06:48;9.65;;;2.60;;
72235;SDS011;60146;52.498;13.462;2023-06-22T08:09:14;11.10;;;3.10;;
72235;SDS011;60146;52.498;13.462;2023-06-22T08:11:39;5.93;;;2.13;;
72235;SDS011;60146;52.498;13.462;2023-06-22T08:14:05;3.78;;;2.20;;
72235;SDS011;60146;52.498;13.462;2023-06-22T08:16:30;3.78;;;2.10;;
72235;SDS011;60146;52.498;13.462;2023-06-22T08:18:56;6.10;;;2.50;;
72235;SDS011;60146;52.498;13.462;2023-06-22T08:21:21;7.00;;;2.20;;
72235;SDS011;60146;52.498;13.462;2023-06-22T08:23:47;6.38;;;2.50;;
72235;SDS011;60146;52.498;13.462;2023-06-22T08:26:13;6.55;;;2.72;;
72235;SDS011;60146;52.498;13.462;2023-06-22T08:28:39;7.85;;;2.70;;
72235;SDS011;60146;52.498;13.462;2023-06-22T08:31:05;4.28;;;2.10;;
72235;SDS011;60146;52.498;13.462;2023-06-22T08:33:30;3.83;;;2.40;;
72235;SDS011;60146;52.498;13.462;2023-06-22T08:35:56;8.38;;;2.50;;
72235;SDS011;60146;52.498;13.462;2023-06-22T08:38:24;10.32;;;3.08;;
72235;SDS011;60146;52.498;13.462;2023-06-22T08:40:50;4.50;;;2.55;;
72235;SDS011;60146;52.498;13.462;2023-06-22T08:43:15;3.88;;;2.55;;
72235;SDS011;60146;52.498;13.462;2023-06-22T08:45:46;5.60;;;2.67;;
72235;SDS011;60146;52.498;13.462;2023-06-22T08:48:15;5.43;;;2.83;;
72235;SDS011;60146;52.498;13.462;2023-06-22T08:50:40;8.45;;;2.80;;
72235;SDS011;60146;52.498;13.462;2023-06-22T08:53:05;5.13;;;2.25;;
72235;SDS011;60146;52.498;13.462;2023-06-22T08:55:31;5.07;;;2.45;;
72235;SDS011;60146;52.498;13.462;2023-06-22T08:57:56;5.85;;;2.78;;
72235;SDS011;60146;52.498;13.462;2023-06-22T09:00:22;5.22;;;2.80;;
72235;SDS011;60146;52.498;13.462;2023-06-22T09:02:47;4.15;;;2.65;;
72235;SDS011;60146;52.498;13.462;2023-06-22T09:05:13;11.20;;;3.47;;
72235;SDS011;60146;52.498;13.462;2023-06-22T09:07:39;5.22;;;2.88;;
72235;SDS011;60146;52.498;13.462;2023-06-22T09:10:05;5.93;;;2.60;;
72235;SDS011;60146;52.498;13.462;2023-06-22T09:12:31;7.05;;;2.50;;
72235;SDS011;60146;52.498;13.462;2023-06-22T09:14:58;3.67;;;2.45;;
72235;SDS011;60146;52.498;13.462;2023-06-22T09:17:25;4.68;;;2.28;;
72235;SDS011;60146;52.498;13.462;2023-06-22T09:19:51;6.15;;;3.10;;
72235;SDS011;60146;52.498;13.462;2023-06-22T09:22:16;6.85;;;2.83;;
72235;SDS011;60146;52.498;13.462;2023-06-22T09:24:42;5.30;;;2.65;;
72235;SDS011;60146;52.498;13.462;2023-06-22T09:27:07;5.15;;;2.67;;
72235;SDS011;60146;52.498;13.462;2023-06-22T09:29:32;3.47;;;2.40;;
72235;SDS011;60146;52.498;13.462;2023-06-22T09:32:00;6.95;;;2.95;;
72235;SDS011;60146;52.498;13.462;2023-06-22T09:34:26;12.38;;;3.97;;
72235;SDS011;60146;52.498;13.462;2023-06-22T09:36:52;4.25;;;2.63;;
72235;SDS011;60146;52.498;13.462;2023-06-22T09:39:18;4.18;;;2.60;;
72235;SDS011;60146;52.498;13.462;2023-06-22T09:41:53;4.88;;;2.75;;
72235;SDS011;60146;52.498;13.462;2023-06-22T09:44:18;5.13;;;2.75;;
72235;SDS011;60146;52.498;13.462;2023-06-22T09:46:44;5.30;;;2.55;;
72235;SDS011;60146;52.498;13.462;2023-06-22T09:49:09;5.97;;;2.80;;
72235;SDS011;60146;52.498;13.462;2023-06-22T09:51:35;4.93;;;3.10;;
72235;SDS011;60146;52.498;13.462;2023-06-22T09:54:09;4.72;;;2.67;;
72235;SDS011;60146;52.498;13.462;2023-06-22T09:56:34;3.47;;;2.60;;
72235;SDS011;60146;52.498;13.462;2023-06-22T09:59:02;5.57;;;2.90;;
72235;SDS011;60146;52.498;13.462;2023-06-22T10:01:28;4.53;;;2.75;;
72235;SDS011;60146;52.498;13.462;2023-06-22T10:03:53;6.70;;;3.05;;
72235;SDS011;60146;52.498;13.462;2023-06-22T10:06:22;4.18;;;2.40;;
72235;SDS011;60146;52.498;13.462;2023-06-22T10:08:47;3.90;;;2.80;;
72235;SDS011;60146;52.498;13.462;2023-06-22T10:11:15;6.13;;;2.70;;
72235;SDS011;60146;52.498;13.462;2023-06-22T10:13:41;8.98;;;3.67;;
72235;SDS011;60146;52.498;13.462;2023-06-22T10:16:06;5.88;;;3.03;;
72235;SDS011;60146;52.498;13.462;2023-06-22T10:18:32;6.68;;;3.00;;
72235;SDS011;60146;52.498;13.462;2023-06-22T10:20:57;6.13;;;2.90;;
72235;SDS011;60146;52.498;13.462;2023-06-22T10:23:22;5.85;;;2.53;;
72235;SDS011;60146;52.498;13.462;2023-06-22T10:25:48;4.55;;;3.10;;
72235;SDS011;60146;52.498;13.462;2023-06-22T10:28:13;3.65;;;2.85;;
72235;SDS011;60146;52.498;13.462;2023-06-22T10:30:42;11.35;;;3.40;;
72235;SDS011;60146;52.498;13.462;2023-06-22T10:35:34;3.45;;;2.55;;
72235;SDS011;60146;52.498;13.462;2023-06-22T10:37:59;5.03;;;2.88;;
72235;SDS011;60146;52.498;13.462;2023-06-22T10:40:25;6.65;;;2.88;;
72235;SDS011;60146;52.498;13.462;2023-06-22T10:42:50;4.10;;;2.53;;
72235;SDS011;60146;52.498;13.462;2023-06-22T10:45:15;6.50;;;2.67;;
72235;SDS011;60146;52.498;13.462;2023-06-22T10:47:41;6.40;;;2.65;;
72235;SDS011;60146;52.498;13.462;2023-06-22T10:52:35;5.65;;;2.60;;
72235;SDS011;60146;52.498;13.462;2023-06-22T10:55:00;5.15;;;2.40;;
72235;SDS011;60146;52.498;13.462;2023-06-22T10:57:26;4.30;;;2.70;;
72235;SDS011;60146;52.498;13.462;2023-06-22T10:59:51;5.00;;;2.70;;
72235;SDS011;60146;52.498;13.462;2023-06-22T11:02:16;19.58;;;3.38;;
72235;SDS011;60146;52.498;13.462;2023-06-22T11:04:42;2.40;;;2.20;;
72235;SDS011;60146;52.498;13.462;2023-06-22T11:07:07;3.17;;;2.30;;
72235;SDS011;60146;52.498;13.462;2023-06-22T11:09:32;3.75;;;2.17;;
72235;SDS011;60146;52.498;13.462;2023-06-22T11:11:58;3.45;;;2.22;;
72235;SDS011;60146;52.498;13.462;2023-06-22T11:14:24;12.00;;;2.90;;
72235;SDS011;60146;52.498;13.462;2023-06-22T11:16:49;4.75;;;2.08;;
72235;SDS011;60146;52.498;13.462;2023-06-22T11:19:15;3.85;;;2.22;;
72235;SDS011;60146;52.498;13.462;2023-06-22T11:21:40;29.50;;;4.10;;
72235;SDS011;60146;52.498;13.462;2023-06-22T11:24:06;3.20;;;2.35;;
72235;SDS011;60146;52.498;13.462;2023-06-22T11:26:31;20.05;;;2.83;;
72235;SDS011;60146;52.498;13.462;2023-06-22T11:28:58;5.18;;;2.40;;
72235;SDS011;60146;52.498;13.462;2023-06-22T11:31:23;7.53;;;2.78;;
72235;SDS011;60146;52.498;13.462;2023-06-22T11:33:49;3.22;;;2.17;;
72235;SDS011;60146;52.498;13.462;2023-06-22T11:36:14;4.28;;;2.70;;
72235;SDS011;60146;52.498;13.462;2023-06-22T11:38:40;5.18;;;2.40;;
72235;SDS011;60146;52.498;13.462;2023-06-22T11:41:06;2.72;;;2.30;;
72235;SDS011;60146;52.498;13.462;2023-06-22T11:43:32;4.15;;;2.75;;
72235;SDS011;60146;52.498;13.462;2023-06-22T11:45:58;4.18;;;2.80;;
72235;SDS011;60146;52.498;13.462;2023-06-22T11:48:24;6.60;;;2.80;;
72235;SDS011;60146;52.498;13.462;2023-06-22T11:50:50;5.47;;;2.53;;
72235;SDS011;60146;52.498;13.462;2023-06-22T11:53:15;6.07;;;3.28;;
72235;SDS011;60146;52.498;13.462;2023-06-22T11:55:42;4.25;;;2.58;;
72235;SDS011;60146;52.498;13.462;2023-06-22T11:58:08;6.15;;;4.30;;
72235;SDS011;60146;52.498;13.462;2023-06-22T12:00:33;3.10;;;2.70;;
72235;SDS011;60146;52.498;13.462;2023-06-22T12:02:58;4.78;;;2.90;;
72235;SDS011;60146;52.498;13.462;2023-06-22T12:05:24;13.50;;;3.55;;
72235;SDS011;60146;52.498;13.462;2023-06-22T12:07:50;4.32;;;2.55;;
72235;SDS011;60146;52.498;13.462;2023-06-22T12:10:15;3.95;;;2.70;;
72235;SDS011;60146;52.498;13.462;2023-06-22T12:12:41;4.32;;;2.92;;
72235;SDS011;60146;52.498;13.462;2023-06-22T12:15:07;4.80;;;2.55;;
72235;SDS011;60146;52.498;13.462;2023-06-22T12:17:34;6.05;;;2.90;;
72235;SDS011;60146;52.498;13.462;2023-06-22T12:20:09;6.43;;;2.67;;
72235;SDS011;60146;52.498;13.462;2023-06-22T12:22:41;3.25;;;2.90;;
72235;SDS011;60146;52.498;13.462;2023-06-22T12:25:07;5.88;;;2.92;;
72235;SDS011;60146;52.498;13.462;2023-06-22T12:27:33;3.88;;;2.70;;
72235;SDS011;60146;52.498;13.462;2023-06-22T12:29:59;3.10;;;2.80;;
72235;SDS011;60146;52.498;13.462;2023-06-22T12:32:25;3.78;;;3.00;;
72235;SDS011;60146;52.498;13.462;2023-06-22T12:37:18;3.35;;;2.80;;
72235;SDS011;60146;52.498;13.462;2023-06-22T12:39:43;3.45;;;2.90;;
72235;SDS011;60146;52.498;13.462;2023-06-22T12:42:09;4.38;;;2.83;;
72235;SDS011;60146;52.498;13.462;2023-06-22T12:44:37;5.68;;;2.88;;
72235;SDS011;60146;52.498;13.462;2023-06-22T12:47:03;5.68;;;3.00;;
72235;SDS011;60146;52.498;13.462;2023-06-22T12:49:28;6.40;;;3.45;;
72235;SDS011;60146;52.498;13.462;2023-06-22T12:51:54;3.58;;;2.97;;
72235;SDS011;60146;52.498;13.462;2023-06-22T12:54:19;3.15;;;2.70;;
72235;SDS011;60146;52.498;13.462;2023-06-22T12:56:44;3.75;;;3.03;;
72235;SDS011;60146;52.498;13.462;2023-06-22T12:59:10;4.47;;;3.10;;
72235;SDS011;60146;52.498;13.462;2023-06-22T13:01:35;5.75;;;3.47;;
72235;SDS011;60146;52.498;13.462;2023-06-22T13:04:02;4.80;;;4.00;;
72235;SDS011;60146;52.498;13.462;2023-06-22T13:06:28;5.70;;;3.25;;
72235;SDS011;60146;52.498;13.462;2023-06-22T13:08:53;3.88;;;3.13;;
72235;SDS011;60146;52.498;13.462;2023-06-22T13:11:19;3.95;;;2.95;;
72235;SDS011;60146;52.498;13.462;2023-06-22T13:13:45;4.13;;;2.90;;
72235;SDS011;60146;52.498;13.462;2023-06-22T13:16:11;4.20;;;3.20;;
72235;SDS011;60146;52.498;13.462;2023-06-22T13:18:36;6.00;;;3.00;;
72235;SDS011;60146;52.498;13.462;2023-06-22T13:21:02;5.55;;;3.33;;
72235;SDS011;60146;52.498;13.462;2023-06-22T13:23:28;7.15;;;3.58;;
72235;SDS011;60146;52.498;13.462;2023-06-22T13:25:53;5.70;;;3.20;;
72235;SDS011;60146;52.498;13.462;2023-06-22T13:28:18;3.90;;;3.20;;
72235;SDS011;60146;52.498;13.462;2023-06-22T13:30:45;4.13;;;3.10;;
72235;SDS011;60146;52.498;13.462;2023-06-22T13:33:12;3.75;;;2.65;;
72235;SDS011;60146;52.498;13.462;2023-06-22T13:35:40;4.82;;;3.10;;
72235;SDS011;60146;52.498;13.462;2023-06-22T13:40:34;6.72;;;3.58;;
72235;SDS011;60146;52.498;13.462;2023-06-22T13:43:00;4.88;;;3.20;;
72235;SDS011;60146;52.498;13.462;2023-06-22T13:45:26;27.92;;;4.45;;
72235;SDS011;60146;52.498;13.462;2023-06-22T13:47:51;5.25;;;3.20;;
72235;SDS011;60146;52.498;13.462;2023-06-22T13:50:17;13.55;;;3.70;;
72235;SDS011;60146;52.498;13.462;2023-06-22T13:52:42;20.30;;;4.30;;
72235;SDS011;60146;52.498;13.462;2023-06-22T13:55:08;4.95;;;3.22;;
72235;SDS011;60146;52.498;13.462;2023-06-22T13:57:34;4.22;;;3.17;;
72235;SDS011;60146;52.498;13.462;2023-06-22T14:00:01;4.88;;;3.40;;
72235;SDS011;60146;52.498;13.462;2023-06-22T14:02:27;4.28;;;2.97;;
72235;SDS011;60146;52.498;13.462;2023-06-22T14:04:53;4.63;;;3.30;;
72235;SDS011;60146;52.498;13.462;2023-06-22T14:07:18;4.15;;;3.20;;
72235;SDS011;60146;52.498;13.462;2023-06-22T14:09:46;7.40;;;3.38;;
72235;SDS011;60146;52.498;13.462;2023-06-22T14:12:12;8.30;;;3.50;;
72235;SDS011;60146;52.498;13.462;2023-06-22T14:14:37;5.88;;;3.60;;
72235;SDS011;60146;52.498;13.462;2023-06-22T14:17:03;9.88;;;3.50;;
72235;SDS011;60146;52.498;13.462;2023-06-22T14:19:29;12.27;;;4.63;;
72235;SDS011;60146;52.498;13.462;2023-06-22T14:21:54;4.45;;;3.10;;
72235;SDS011;60146;52.498;13.462;2023-06-22T14:24:20;4.13;;;3.00;;
72235;SDS011;60146;52.498;13.462;2023-06-22T14:26:46;6.63;;;3.42;;
72235;SDS011;60146;52.498;13.462;2023-06-22T14:29:11;6.60;;;3.28;;
72235;SDS011;60146;52.498;13.462;2023-06-22T14:31:36;6.18;;;3.38;;
72235;SDS011;60146;52.498;13.462;2023-06-22T14:34:02;5.80;;;3.10;;
72235;SDS011;60146;52.498;13.462;2023-06-22T14:36:28;4.57;;;3.40;;
72235;SDS011;60146;52.498;13.462;2023-06-22T14:38:53;4.95;;;3.22;;
72235;SDS011;60146;52.498;13.462;2023-06-22T14:41:19;6.95;;;4.07;;
72235;SDS011;60146;52.498;13.462;2023-06-22T14:43:45;17.55;;;4.40;;